Nearby METAR Reports

 

KCMA - Camarillo, California, USA
Distance from station: WSW 4mi, 7km
Updated: Sun, 08-Dec-2019 9:55pm PST
Few Clouds
Few Clouds
 Wind from E
Wind: E 5 mph , 7 km/h
Temperature: 55°F , 13°C
Dew Point: 52°F , 11°C
Humidity: 88%
Barometer: 30.01 inHg , 1016.3 hPa
Clouds: Few Clouds
Visibility: 9 miles , 14 km
Cloud details: Few Clouds 1900 ft
2019/12/09 05:55 KCMA 090555Z AUTO 09004KT 9SM FEW019 13/11 A3001 RMK AO2 SLP169 T01330106 10167 20128 53009
KNTD - Point Mugu Nas, California, USA
Distance from station: SSW 9mi, 15km
Updated: Sun, 08-Dec-2019 9:52pm PST
Partly cloudy
Partly cloudy
 Wind from WNW
Wind: WNW 3 mph , 6 km/h
Temperature: 57°F , 14°C
Dew Point: 52°F , 11°C
Humidity: 82%
Barometer: 30.02 inHg , 1016.6 hPa
Clouds: Partly cloudy
Visibility: 10 miles , 16 km
Cloud details: Partly cloudy 2000 ft
2019/12/09 05:52 KNTD 090552Z 29003KT 10SM SCT020 14/11 A3002 RMK AO2 SLP165 T01390111 10161 20133 53008 $
 
KOXR - Oxnard, California, USA
Distance from station: WSW 10mi, 16km
Updated: Sun, 08-Dec-2019 9:51pm PST
Clear
Clear
 Wind from NNE
Wind: NNE 3 mph , 6 km/h
Temperature: 54°F , 12°C
Dew Point: 52°F , 11°C
Humidity: 94%
Barometer: 30.01 inHg , 1016.3 hPa
Clouds: Clear
Visibility: 10 miles , 16 km
2019/12/09 05:51 KOXR 090551Z AUTO 03003KT 10SM CLR 12/11 A3001 RMK AO2 SLP161 60000 T01170106 10156 20117 53010
KVNY - Van Nuys, California, USA
Distance from station: E 31mi, 50km
Updated: Sun, 08-Dec-2019 9:51pm PST
Mostly cloudy
Mostly cloudy
 Wind from calm
Wind: Calm
Temperature: 54°F , 12°C
Dew Point: 50°F , 10°C
Humidity: 88%
Barometer: 30.00 inHg , 1015.9 hPa
Clouds: Mostly cloudy
Visibility: 10 miles , 16 km
Cloud details: Partly cloudy 1800 ft
Partly cloudy 2400 ft
Mostly cloudy 3800 ft
2019/12/09 05:51 KVNY 090551Z 00000KT 10SM SCT018 SCT024 BKN038 12/10 A3000 RMK AO2 SLP157 T01170100 10161 20117 53006
 
KWHP - La / Whiteman, California, USA
Distance from station: E 35mi, 56km
Updated: Sun, 08-Dec-2019 7:55pm PST
NOT Current
Mostly cloudy
Mostly cloudy
 Wind from calm
Wind: Calm
Temperature: 54°F , 12°C
Dew Point: 54°F , 12°C
Humidity: 100%
Barometer: 30.02 inHg , 1016.6 hPa
Clouds: Mostly cloudy
Visibility: 10 miles , 16 km
Cloud details: Mostly cloudy 3000 ft
2019/12/09 03:55 KWHP 090355Z 00000KT 10SM BKN030 12/12 A3002
KSMO - Santa Monica, California, USA
Distance from station: ESE 36mi, 58km
Updated: Sun, 08-Dec-2019 9:51pm PST
Clear
Clear
 Wind from calm
Wind: Calm
Temperature: 54°F , 12°C
Dew Point: 50°F , 10°C
Humidity: 88%
Barometer: 30.02 inHg , 1016.6 hPa
Clouds: Clear
Visibility: 10 miles , 16 km
2019/12/09 05:51 KSMO 090551Z AUTO 00000KT 10SM CLR 12/10 A3002 RMK AO2 SLP163 T01220100 10161 20122 53006
 
KBUR - Burbank, California, USA
Distance from station: E 38mi, 61km
Updated: Sun, 08-Dec-2019 10:03pm PST
Mostly cloudy
Mostly cloudy
 Wind from ENE
Wind: ENE 5 mph , 7 km/h
Temperature: 54°F , 12°C
Dew Point: 48°F , 9°C
Humidity: 82%
Barometer: 30.01 inHg , 1016.3 hPa
Clouds: Mostly cloudy
Visibility: 10 miles , 16 km
Cloud details: Mostly cloudy 1700 ft
2019/12/09 06:03 KBUR 090603Z 06004KT 10SM BKN017 12/09 A3001 RMK AO2 T01170094 $
KSDB - Sandberg, California, USA
Distance from station: NNE 40mi, 64km
Updated: Sun, 08-Dec-2019 9:53pm PST
Mostly cloudy
Mostly cloudy
 
Temperature: 39°F , 4°C
Dew Point: 37°F , 3°C
Humidity: 93%
Barometer: 30.04 inHg , 1017.3 hPa
Clouds: Mostly cloudy
Visibility: 10 miles , 16 km
Cloud details: Mostly cloudy 500 ft
2019/12/09 05:53 KSDB 090553Z AUTO 10SM BKN005 04/03 A3004 RMK AO2 CIG 004V010 SLP156 60000 T00440028 10083 20044 53008
 
KLAX - Los Angeles, California, USA
Distance from station: ESE 42mi, 68km
Updated: Sun, 08-Dec-2019 9:53pm PST
Few Clouds
Few Clouds
 Wind from W
Wind: W 12 mph , 19 km/h
Temperature: 59°F , 15°C
Dew Point: 54°F , 12°C
Humidity: 82%
Barometer: 30.01 inHg , 1016.3 hPa
Clouds: Few Clouds
Visibility: 10 miles , 16 km
Cloud details: Few Clouds 1500 ft
Few Clouds 5000 ft
2019/12/09 05:53 KLAX 090553Z 26010KT 10SM FEW015 FEW050 15/12 A3001 RMK AO2 SLP162 T01500117 10167 20150 53004
KCQT - Los Angeles, California, USA
Distance from station: ESE 45mi, 73km
Updated: Sun, 08-Dec-2019 9:52pm PST
Clear
Clear
 Wind from calm
Wind: Calm
Temperature: 57°F , 14°C
Dew Point: 52°F , 11°C
Humidity: 82%
Barometer: 30.01 inHg , 1016.3 hPa
Clouds: Clear
Visibility: 10 miles , 16 km
2019/12/09 05:52 KCQT 090552Z AUTO 00000KT 10SM CLR 14/11 A3001 RMK AO2 SLP161 T01390111 10178 20139 53006
 
KHHR - Hawthorne, California, USA
Distance from station: ESE 45mi, 73km
Updated: Sat, 07-Dec-2019 3:53pm PST
NOT Current
Overcast
Overcast
 Wind from WNW
Wind: WNW 3 mph , 6 km/h
Temperature: 64°F , 18°C
Dew Point: 55°F , 13°C
Humidity: 73%
Barometer: 30.07 inHg , 1018.3 hPa
Clouds: Overcast
Visibility: 10 miles , 16 km
Cloud details: Mostly cloudy 5000 ft
Overcast 6000 ft
2019/12/07 23:53 KHHR 072353Z 29003KT 10SM BKN050 OVC060 18/13 A3007 RMK AO2 SLP181 60000 T01780128 10194 20172 58012
KSBA - Santa Barbara, California, USA
Distance from station: WNW 49mi, 79km
Updated: Sun, 08-Dec-2019 9:53pm PST
Clear
Clear
 Wind from calm
Wind: Calm
Temperature: 54°F , 12°C
Dew Point: 46°F , 8°C
Humidity: 77%
Barometer: 30.02 inHg , 1016.6 hPa
Clouds: Clear
Visibility: 10 miles , 16 km
2019/12/09 05:53 KSBA 090553Z 00000KT 10SM CLR 12/08 A3002 RMK AO2 SLP164 60004 T01220078 10161 20100 53009